sensor_id;sensor_type;location;lat;lon;timestamp;P1;durP1;ratioP1;P2;durP2;ratioP2
12689;SDS011;6409;56.294;14.480;2022-10-16T00:02:15;13.40;;;6.60;;
12689;SDS011;6409;56.294;14.480;2022-10-16T00:04:42;15.73;;;7.03;;
12689;SDS011;6409;56.294;14.480;2022-10-16T00:07:09;11.53;;;6.67;;
12689;SDS011;6409;56.294;14.480;2022-10-16T00:09:35;17.17;;;6.73;;
12689;SDS011;6409;56.294;14.480;2022-10-16T00:12:02;11.73;;;6.17;;
12689;SDS011;6409;56.294;14.480;2022-10-16T00:14:31;17.70;;;7.17;;
12689;SDS011;6409;56.294;14.480;2022-10-16T00:17:00;13.77;;;6.60;;
12689;SDS011;6409;56.294;14.480;2022-10-16T00:19:26;12.63;;;6.20;;
12689;SDS011;6409;56.294;14.480;2022-10-16T00:21:54;15.63;;;6.63;;
12689;SDS011;6409;56.294;14.480;2022-10-16T00:24:20;18.17;;;7.93;;
12689;SDS011;6409;56.294;14.480;2022-10-16T00:26:49;9.37;;;5.43;;
12689;SDS011;6409;56.294;14.480;2022-10-16T00:29:16;11.20;;;6.10;;
12689;SDS011;6409;56.294;14.480;2022-10-16T00:31:43;11.90;;;5.77;;
12689;SDS011;6409;56.294;14.480;2022-10-16T00:34:11;9.77;;;6.00;;
12689;SDS011;6409;56.294;14.480;2022-10-16T00:36:38;13.07;;;5.93;;
12689;SDS011;6409;56.294;14.480;2022-10-16T00:39:04;13.40;;;6.53;;
12689;SDS011;6409;56.294;14.480;2022-10-16T00:41:32;8.97;;;5.10;;
12689;SDS011;6409;56.294;14.480;2022-10-16T00:44:00;13.20;;;6.37;;
12689;SDS011;6409;56.294;14.480;2022-10-16T00:46:28;10.63;;;6.03;;
12689;SDS011;6409;56.294;14.480;2022-10-16T00:48:59;12.27;;;6.97;;
12689;SDS011;6409;56.294;14.480;2022-10-16T00:51:30;12.60;;;6.13;;
12689;SDS011;6409;56.294;14.480;2022-10-16T00:53:59;13.00;;;6.87;;
12689;SDS011;6409;56.294;14.480;2022-10-16T00:56:26;19.70;;;7.50;;
12689;SDS011;6409;56.294;14.480;2022-10-16T00:58:53;15.87;;;6.50;;
12689;SDS011;6409;56.294;14.480;2022-10-16T01:01:20;14.27;;;7.13;;
12689;SDS011;6409;56.294;14.480;2022-10-16T01:03:47;13.07;;;6.67;;
12689;SDS011;6409;56.294;14.480;2022-10-16T01:06:18;12.93;;;6.17;;
12689;SDS011;6409;56.294;14.480;2022-10-16T01:08:52;12.73;;;6.17;;
12689;SDS011;6409;56.294;14.480;2022-10-16T01:11:28;19.33;;;7.53;;
12689;SDS011;6409;56.294;14.480;2022-10-16T01:14:00;14.53;;;7.40;;
12689;SDS011;6409;56.294;14.480;2022-10-16T01:16:33;11.07;;;6.40;;
12689;SDS011;6409;56.294;14.480;2022-10-16T01:19:04;11.67;;;6.60;;
12689;SDS011;6409;56.294;14.480;2022-10-16T01:21:35;13.73;;;7.03;;
12689;SDS011;6409;56.294;14.480;2022-10-16T01:24:06;11.40;;;6.67;;
12689;SDS011;6409;56.294;14.480;2022-10-16T01:26:43;11.67;;;6.73;;
12689;SDS011;6409;56.294;14.480;2022-10-16T01:29:23;14.87;;;7.80;;
12689;SDS011;6409;56.294;14.480;2022-10-16T01:31:53;13.50;;;6.53;;
12689;SDS011;6409;56.294;14.480;2022-10-16T01:34:35;14.83;;;7.50;;
12689;SDS011;6409;56.294;14.480;2022-10-16T01:37:05;10.53;;;7.13;;
12689;SDS011;6409;56.294;14.480;2022-10-16T01:39:36;13.73;;;6.93;;
12689;SDS011;6409;56.294;14.480;2022-10-16T01:42:06;17.90;;;7.13;;
12689;SDS011;6409;56.294;14.480;2022-10-16T01:44:37;16.20;;;7.93;;
12689;SDS011;6409;56.294;14.480;2022-10-16T01:47:05;14.57;;;6.07;;
12689;SDS011;6409;56.294;14.480;2022-10-16T01:49:33;15.10;;;8.23;;
12689;SDS011;6409;56.294;14.480;2022-10-16T01:52:02;11.37;;;6.17;;
12689;SDS011;6409;56.294;14.480;2022-10-16T01:54:32;14.37;;;7.10;;
12689;SDS011;6409;56.294;14.480;2022-10-16T01:57:00;13.30;;;6.93;;
12689;SDS011;6409;56.294;14.480;2022-10-16T01:59:28;13.57;;;6.87;;
12689;SDS011;6409;56.294;14.480;2022-10-16T02:01:59;14.87;;;6.77;;
12689;SDS011;6409;56.294;14.480;2022-10-16T02:04:29;14.70;;;7.43;;
12689;SDS011;6409;56.294;14.480;2022-10-16T02:06:58;15.30;;;7.03;;
12689;SDS011;6409;56.294;14.480;2022-10-16T02:09:25;10.80;;;6.43;;
12689;SDS011;6409;56.294;14.480;2022-10-16T02:11:52;15.57;;;7.23;;
12689;SDS011;6409;56.294;14.480;2022-10-16T02:14:20;15.33;;;6.43;;
12689;SDS011;6409;56.294;14.480;2022-10-16T02:16:50;13.27;;;6.80;;
12689;SDS011;6409;56.294;14.480;2022-10-16T02:19:18;13.90;;;6.43;;
12689;SDS011;6409;56.294;14.480;2022-10-16T02:21:46;12.73;;;7.07;;
12689;SDS011;6409;56.294;14.480;2022-10-16T02:24:18;11.20;;;6.67;;
12689;SDS011;6409;56.294;14.480;2022-10-16T02:26:51;13.80;;;6.13;;
12689;SDS011;6409;56.294;14.480;2022-10-16T02:29:20;16.50;;;6.47;;
12689;SDS011;6409;56.294;14.480;2022-10-16T02:31:55;13.10;;;5.90;;
12689;SDS011;6409;56.294;14.480;2022-10-16T02:34:26;9.93;;;5.70;;
12689;SDS011;6409;56.294;14.480;2022-10-16T02:36:54;12.00;;;6.67;;
12689;SDS011;6409;56.294;14.480;2022-10-16T02:39:21;10.70;;;5.97;;
12689;SDS011;6409;56.294;14.480;2022-10-16T02:41:48;10.33;;;5.37;;
12689;SDS011;6409;56.294;14.480;2022-10-16T02:44:15;11.60;;;6.07;;
12689;SDS011;6409;56.294;14.480;2022-10-16T02:46:42;11.07;;;6.07;;
12689;SDS011;6409;56.294;14.480;2022-10-16T02:49:08;20.23;;;6.53;;
12689;SDS011;6409;56.294;14.480;2022-10-16T02:51:37;12.30;;;6.47;;
12689;SDS011;6409;56.294;14.480;2022-10-16T02:54:03;11.10;;;6.17;;
12689;SDS011;6409;56.294;14.480;2022-10-16T02:56:30;11.57;;;6.07;;
12689;SDS011;6409;56.294;14.480;2022-10-16T02:58:58;15.93;;;7.07;;
12689;SDS011;6409;56.294;14.480;2022-10-16T03:01:25;12.33;;;6.43;;
12689;SDS011;6409;56.294;14.480;2022-10-16T03:03:52;26.23;;;6.50;;
12689;SDS011;6409;56.294;14.480;2022-10-16T03:06:19;17.30;;;6.90;;
12689;SDS011;6409;56.294;14.480;2022-10-16T03:08:47;19.30;;;6.87;;
12689;SDS011;6409;56.294;14.480;2022-10-16T03:11:14;8.03;;;5.00;;
12689;SDS011;6409;56.294;14.480;2022-10-16T03:13:41;10.27;;;5.50;;
12689;SDS011;6409;56.294;14.480;2022-10-16T03:16:08;11.00;;;5.10;;
12689;SDS011;6409;56.294;14.480;2022-10-16T03:18:34;121.13;;;8.37;;
12689;SDS011;6409;56.294;14.480;2022-10-16T03:21:01;7.13;;;4.20;;
12689;SDS011;6409;56.294;14.480;2022-10-16T03:23:28;8.77;;;5.27;;
12689;SDS011;6409;56.294;14.480;2022-10-16T03:25:57;28.10;;;6.10;;
12689;SDS011;6409;56.294;14.480;2022-10-16T03:28:24;12.20;;;6.10;;
12689;SDS011;6409;56.294;14.480;2022-10-16T03:30:51;9.73;;;4.40;;
12689;SDS011;6409;56.294;14.480;2022-10-16T03:33:17;11.87;;;5.00;;
12689;SDS011;6409;56.294;14.480;2022-10-16T03:35:50;7.03;;;5.00;;
12689;SDS011;6409;56.294;14.480;2022-10-16T03:38:18;11.73;;;5.83;;
12689;SDS011;6409;56.294;14.480;2022-10-16T03:40:45;10.63;;;5.27;;
12689;SDS011;6409;56.294;14.480;2022-10-16T03:43:13;30.77;;;6.50;;
12689;SDS011;6409;56.294;14.480;2022-10-16T03:45:40;10.53;;;5.27;;
12689;SDS011;6409;56.294;14.480;2022-10-16T03:48:07;10.27;;;5.33;;
12689;SDS011;6409;56.294;14.480;2022-10-16T03:50:33;42.73;;;6.50;;
12689;SDS011;6409;56.294;14.480;2022-10-16T03:53:00;13.60;;;5.47;;
12689;SDS011;6409;56.294;14.480;2022-10-16T03:55:27;11.23;;;5.53;;
12689;SDS011;6409;56.294;14.480;2022-10-16T03:57:54;14.07;;;5.00;;
12689;SDS011;6409;56.294;14.480;2022-10-16T04:00:22;12.63;;;4.77;;
12689;SDS011;6409;56.294;14.480;2022-10-16T04:02:49;15.40;;;5.40;;
12689;SDS011;6409;56.294;14.480;2022-10-16T04:05:16;12.90;;;5.03;;
12689;SDS011;6409;56.294;14.480;2022-10-16T04:07:43;9.07;;;5.30;;
12689;SDS011;6409;56.294;14.480;2022-10-16T04:10:09;10.80;;;5.13;;
12689;SDS011;6409;56.294;14.480;2022-10-16T04:12:36;12.17;;;4.43;;
12689;SDS011;6409;56.294;14.480;2022-10-16T04:15:03;8.43;;;4.40;;
12689;SDS011;6409;56.294;14.480;2022-10-16T04:17:32;10.30;;;5.23;;
12689;SDS011;6409;56.294;14.480;2022-10-16T04:19:59;10.53;;;4.77;;
12689;SDS011;6409;56.294;14.480;2022-10-16T04:22:25;7.80;;;4.37;;
12689;SDS011;6409;56.294;14.480;2022-10-16T04:24:52;7.03;;;4.50;;
12689;SDS011;6409;56.294;14.480;2022-10-16T04:27:19;7.80;;;4.47;;
12689;SDS011;6409;56.294;14.480;2022-10-16T04:29:46;8.27;;;4.50;;
12689;SDS011;6409;56.294;14.480;2022-10-16T04:32:13;8.80;;;4.67;;
12689;SDS011;6409;56.294;14.480;2022-10-16T04:34:41;13.03;;;4.53;;
12689;SDS011;6409;56.294;14.480;2022-10-16T04:37:08;9.20;;;4.17;;
12689;SDS011;6409;56.294;14.480;2022-10-16T04:39:35;12.70;;;4.30;;
12689;SDS011;6409;56.294;14.480;2022-10-16T04:42:02;7.50;;;4.50;;
12689;SDS011;6409;56.294;14.480;2022-10-16T04:44:29;7.00;;;3.77;;
12689;SDS011;6409;56.294;14.480;2022-10-16T04:46:56;5.97;;;3.90;;
12689;SDS011;6409;56.294;14.480;2022-10-16T04:49:22;6.17;;;3.67;;
12689;SDS011;6409;56.294;14.480;2022-10-16T04:51:51;13.43;;;4.47;;
12689;SDS011;6409;56.294;14.480;2022-10-16T04:54:17;5.83;;;3.73;;
12689;SDS011;6409;56.294;14.480;2022-10-16T04:56:44;12.23;;;4.03;;
12689;SDS011;6409;56.294;14.480;2022-10-16T04:59:12;13.57;;;4.30;;
12689;SDS011;6409;56.294;14.480;2022-10-16T05:01:39;8.30;;;4.30;;
12689;SDS011;6409;56.294;14.480;2022-10-16T05:04:06;14.20;;;4.30;;
12689;SDS011;6409;56.294;14.480;2022-10-16T05:06:33;8.53;;;4.17;;
12689;SDS011;6409;56.294;14.480;2022-10-16T05:09:02;9.43;;;4.03;;
12689;SDS011;6409;56.294;14.480;2022-10-16T05:11:29;13.07;;;4.67;;
12689;SDS011;6409;56.294;14.480;2022-10-16T05:13:56;11.77;;;4.47;;
12689;SDS011;6409;56.294;14.480;2022-10-16T05:16:22;6.03;;;4.13;;
12689;SDS011;6409;56.294;14.480;2022-10-16T05:18:50;25.97;;;4.40;;
12689;SDS011;6409;56.294;14.480;2022-10-16T05:21:18;21.13;;;4.47;;
12689;SDS011;6409;56.294;14.480;2022-10-16T05:23:44;23.27;;;3.90;;
12689;SDS011;6409;56.294;14.480;2022-10-16T05:26:13;23.27;;;4.43;;
12689;SDS011;6409;56.294;14.480;2022-10-16T05:28:40;16.90;;;3.80;;
12689;SDS011;6409;56.294;14.480;2022-10-16T05:31:07;9.73;;;4.20;;
12689;SDS011;6409;56.294;14.480;2022-10-16T05:33:34;22.20;;;4.10;;
12689;SDS011;6409;56.294;14.480;2022-10-16T05:36:01;12.03;;;4.43;;
12689;SDS011;6409;56.294;14.480;2022-10-16T05:38:29;7.43;;;3.80;;
12689;SDS011;6409;56.294;14.480;2022-10-16T05:40:55;7.00;;;4.33;;
12689;SDS011;6409;56.294;14.480;2022-10-16T05:43:24;42.03;;;4.17;;
12689;SDS011;6409;56.294;14.480;2022-10-16T05:45:54;6.57;;;3.77;;
12689;SDS011;6409;56.294;14.480;2022-10-16T05:48:22;8.50;;;4.47;;
12689;SDS011;6409;56.294;14.480;2022-10-16T05:50:55;12.40;;;3.90;;
12689;SDS011;6409;56.294;14.480;2022-10-16T05:53:23;6.93;;;4.47;;
12689;SDS011;6409;56.294;14.480;2022-10-16T05:55:53;8.93;;;3.83;;
12689;SDS011;6409;56.294;14.480;2022-10-16T05:58:20;8.27;;;3.50;;
12689;SDS011;6409;56.294;14.480;2022-10-16T06:00:56;8.63;;;4.70;;
12689;SDS011;6409;56.294;14.480;2022-10-16T06:03:24;7.03;;;3.83;;
12689;SDS011;6409;56.294;14.480;2022-10-16T06:05:51;13.53;;;4.67;;
12689;SDS011;6409;56.294;14.480;2022-10-16T06:08:18;11.63;;;4.73;;
12689;SDS011;6409;56.294;14.480;2022-10-16T06:10:45;11.60;;;4.97;;
12689;SDS011;6409;56.294;14.480;2022-10-16T06:13:12;13.07;;;4.83;;
12689;SDS011;6409;56.294;14.480;2022-10-16T06:15:40;17.87;;;5.97;;
12689;SDS011;6409;56.294;14.480;2022-10-16T06:18:09;15.03;;;5.60;;
12689;SDS011;6409;56.294;14.480;2022-10-16T06:20:36;16.53;;;5.40;;
12689;SDS011;6409;56.294;14.480;2022-10-16T06:23:03;14.47;;;5.60;;
12689;SDS011;6409;56.294;14.480;2022-10-16T06:25:30;11.70;;;5.83;;
12689;SDS011;6409;56.294;14.480;2022-10-16T06:27:57;12.07;;;5.07;;
12689;SDS011;6409;56.294;14.480;2022-10-16T06:30:24;11.40;;;5.63;;
12689;SDS011;6409;56.294;14.480;2022-10-16T06:32:51;11.67;;;4.80;;
12689;SDS011;6409;56.294;14.480;2022-10-16T06:35:19;17.27;;;5.53;;
12689;SDS011;6409;56.294;14.480;2022-10-16T06:37:46;16.40;;;4.97;;
12689;SDS011;6409;56.294;14.480;2022-10-16T06:40:13;11.57;;;5.47;;
12689;SDS011;6409;56.294;14.480;2022-10-16T06:42:40;7.67;;;4.20;;
12689;SDS011;6409;56.294;14.480;2022-10-16T06:45:07;7.20;;;4.30;;
12689;SDS011;6409;56.294;14.480;2022-10-16T06:47:34;9.17;;;4.43;;
12689;SDS011;6409;56.294;14.480;2022-10-16T06:50:01;13.77;;;4.43;;
12689;SDS011;6409;56.294;14.480;2022-10-16T06:52:30;11.50;;;4.43;;
12689;SDS011;6409;56.294;14.480;2022-10-16T06:54:56;17.53;;;5.03;;
12689;SDS011;6409;56.294;14.480;2022-10-16T06:57:23;8.10;;;4.60;;
12689;SDS011;6409;56.294;14.480;2022-10-16T06:59:50;9.93;;;5.00;;
12689;SDS011;6409;56.294;14.480;2022-10-16T07:02:17;7.90;;;4.80;;
12689;SDS011;6409;56.294;14.480;2022-10-16T07:04:44;11.53;;;4.10;;
12689;SDS011;6409;56.294;14.480;2022-10-16T07:07:11;10.40;;;4.27;;
12689;SDS011;6409;56.294;14.480;2022-10-16T07:09:39;9.73;;;3.80;;
12689;SDS011;6409;56.294;14.480;2022-10-16T07:12:06;9.20;;;4.77;;
12689;SDS011;6409;56.294;14.480;2022-10-16T07:14:33;10.83;;;3.80;;
12689;SDS011;6409;56.294;14.480;2022-10-16T07:17:00;4.93;;;3.03;;
12689;SDS011;6409;56.294;14.480;2022-10-16T07:19:27;6.73;;;3.20;;
12689;SDS011;6409;56.294;14.480;2022-10-16T07:21:54;10.47;;;3.17;;
12689;SDS011;6409;56.294;14.480;2022-10-16T07:24:22;4.67;;;2.50;;
12689;SDS011;6409;56.294;14.480;2022-10-16T07:26:50;3.97;;;2.77;;
12689;SDS011;6409;56.294;14.480;2022-10-16T07:29:19;5.13;;;2.70;;
12689;SDS011;6409;56.294;14.480;2022-10-16T07:31:47;4.43;;;2.43;;
12689;SDS011;6409;56.294;14.480;2022-10-16T07:34:15;3.73;;;2.50;;
12689;SDS011;6409;56.294;14.480;2022-10-16T07:36:43;7.10;;;2.73;;
12689;SDS011;6409;56.294;14.480;2022-10-16T07:39:13;4.43;;;2.70;;
12689;SDS011;6409;56.294;14.480;2022-10-16T07:41:40;5.00;;;2.63;;
12689;SDS011;6409;56.294;14.480;2022-10-16T07:44:08;4.93;;;2.77;;
12689;SDS011;6409;56.294;14.480;2022-10-16T07:46:35;3.90;;;2.87;;
12689;SDS011;6409;56.294;14.480;2022-10-16T07:49:02;5.23;;;2.63;;
12689;SDS011;6409;56.294;14.480;2022-10-16T07:51:29;3.83;;;2.80;;
12689;SDS011;6409;56.294;14.480;2022-10-16T07:53:56;3.70;;;2.67;;
12689;SDS011;6409;56.294;14.480;2022-10-16T07:56:23;3.53;;;2.47;;
12689;SDS011;6409;56.294;14.480;2022-10-16T07:58:50;5.50;;;2.40;;
12689;SDS011;6409;56.294;14.480;2022-10-16T08:01:19;6.37;;;2.40;;
12689;SDS011;6409;56.294;14.480;2022-10-16T08:03:46;4.57;;;2.63;;
12689;SDS011;6409;56.294;14.480;2022-10-16T08:06:14;7.17;;;2.50;;
12689;SDS011;6409;56.294;14.480;2022-10-16T08:08:43;3.77;;;2.50;;
12689;SDS011;6409;56.294;14.480;2022-10-16T08:11:10;4.30;;;2.40;;
12689;SDS011;6409;56.294;14.480;2022-10-16T08:13:39;3.37;;;2.33;;
12689;SDS011;6409;56.294;14.480;2022-10-16T08:16:06;4.07;;;2.00;;
12689;SDS011;6409;56.294;14.480;2022-10-16T08:18:35;6.73;;;2.27;;
12689;SDS011;6409;56.294;14.480;2022-10-16T08:21:02;3.77;;;1.87;;
12689;SDS011;6409;56.294;14.480;2022-10-16T08:23:30;7.07;;;2.00;;
12689;SDS011;6409;56.294;14.480;2022-10-16T08:26:01;4.60;;;2.30;;
12689;SDS011;6409;56.294;14.480;2022-10-16T08:28:29;5.10;;;2.10;;
12689;SDS011;6409;56.294;14.480;2022-10-16T08:30:56;5.70;;;2.20;;
12689;SDS011;6409;56.294;14.480;2022-10-16T08:33:22;2.33;;;1.90;;
12689;SDS011;6409;56.294;14.480;2022-10-16T08:35:57;3.33;;;2.03;;
12689;SDS011;6409;56.294;14.480;2022-10-16T08:38:24;2.60;;;1.90;;
12689;SDS011;6409;56.294;14.480;2022-10-16T08:40:51;5.63;;;2.30;;
12689;SDS011;6409;56.294;14.480;2022-10-16T08:43:21;1.77;;;1.63;;
12689;SDS011;6409;56.294;14.480;2022-10-16T08:46:01;5.13;;;2.47;;
12689;SDS011;6409;56.294;14.480;2022-10-16T08:48:41;9.53;;;2.40;;
12689;SDS011;6409;56.294;14.480;2022-10-16T08:51:14;6.07;;;2.20;;
12689;SDS011;6409;56.294;14.480;2022-10-16T08:53:46;3.10;;;2.40;;
12689;SDS011;6409;56.294;14.480;2022-10-16T08:56:17;3.73;;;2.33;;
12689;SDS011;6409;56.294;14.480;2022-10-16T08:58:44;7.23;;;2.13;;
12689;SDS011;6409;56.294;14.480;2022-10-16T09:01:12;1.70;;;1.57;;
12689;SDS011;6409;56.294;14.480;2022-10-16T09:03:45;6.10;;;2.40;;
12689;SDS011;6409;56.294;14.480;2022-10-16T09:06:29;1.77;;;1.67;;
12689;SDS011;6409;56.294;14.480;2022-10-16T09:09:08;5.00;;;2.40;;
12689;SDS011;6409;56.294;14.480;2022-10-16T09:11:48;1.50;;;1.40;;
12689;SDS011;6409;56.294;14.480;2022-10-16T09:14:23;6.30;;;2.63;;
12689;SDS011;6409;56.294;14.480;2022-10-16T09:17:08;1.83;;;1.60;;
12689;SDS011;6409;56.294;14.480;2022-10-16T09:19:45;6.03;;;2.60;;
12689;SDS011;6409;56.294;14.480;2022-10-16T09:22:16;3.33;;;2.00;;
12689;SDS011;6409;56.294;14.480;2022-10-16T09:24:43;15.63;;;2.67;;
12689;SDS011;6409;56.294;14.480;2022-10-16T09:27:10;7.40;;;1.70;;
12689;SDS011;6409;56.294;14.480;2022-10-16T09:29:38;2.87;;;1.93;;
12689;SDS011;6409;56.294;14.480;2022-10-16T09:32:08;2.23;;;1.83;;
12689;SDS011;6409;56.294;14.480;2022-10-16T09:34:39;3.80;;;1.70;;
12689;SDS011;6409;56.294;14.480;2022-10-16T09:37:09;8.33;;;2.13;;
12689;SDS011;6409;56.294;14.480;2022-10-16T09:39:45;5.83;;;1.60;;
12689;SDS011;6409;56.294;14.480;2022-10-16T09:42:14;11.10;;;3.17;;
12689;SDS011;6409;56.294;14.480;2022-10-16T09:44:42;7.53;;;1.80;;
12689;SDS011;6409;56.294;14.480;2022-10-16T09:47:14;2.07;;;1.53;;
12689;SDS011;6409;56.294;14.480;2022-10-16T09:49:50;5.93;;;2.27;;
12689;SDS011;6409;56.294;14.480;2022-10-16T09:52:18;7.00;;;1.80;;
12689;SDS011;6409;56.294;14.480;2022-10-16T09:54:50;2.97;;;1.90;;
12689;SDS011;6409;56.294;14.480;2022-10-16T09:57:18;3.50;;;1.90;;
12689;SDS011;6409;56.294;14.480;2022-10-16T09:59:46;3.90;;;2.23;;
12689;SDS011;6409;56.294;14.480;2022-10-16T10:02:14;1.93;;;1.60;;
12689;SDS011;6409;56.294;14.480;2022-10-16T10:04:43;2.13;;;1.50;;
12689;SDS011;6409;56.294;14.480;2022-10-16T10:07:18;10.67;;;2.67;;
12689;SDS011;6409;56.294;14.480;2022-10-16T10:09:46;1.97;;;1.47;;
12689;SDS011;6409;56.294;14.480;2022-10-16T10:12:19;1.70;;;1.57;;
12689;SDS011;6409;56.294;14.480;2022-10-16T10:14:47;4.90;;;1.83;;
12689;SDS011;6409;56.294;14.480;2022-10-16T10:17:16;7.83;;;1.80;;
12689;SDS011;6409;56.294;14.480;2022-10-16T10:19:51;4.00;;;1.70;;
12689;SDS011;6409;56.294;14.480;2022-10-16T10:22:21;5.63;;;1.80;;
12689;SDS011;6409;56.294;14.480;2022-10-16T10:25:00;4.00;;;1.57;;
12689;SDS011;6409;56.294;14.480;2022-10-16T10:27:42;4.90;;;1.53;;
12689;SDS011;6409;56.294;14.480;2022-10-16T10:30:18;7.80;;;2.80;;
12689;SDS011;6409;56.294;14.480;2022-10-16T10:32:50;7.77;;;1.70;;
12689;SDS011;6409;56.294;14.480;2022-10-16T10:35:29;1.77;;;1.60;;
12689;SDS011;6409;56.294;14.480;2022-10-16T10:38:05;3.03;;;1.80;;
12689;SDS011;6409;56.294;14.480;2022-10-16T10:40:39;1.40;;;1.30;;
12689;SDS011;6409;56.294;14.480;2022-10-16T10:43:17;4.23;;;1.60;;
12689;SDS011;6409;56.294;14.480;2022-10-16T10:45:54;1.80;;;1.60;;
12689;SDS011;6409;56.294;14.480;2022-10-16T10:48:26;9.47;;;1.97;;
12689;SDS011;6409;56.294;14.480;2022-10-16T10:51:15;2.23;;;1.33;;
12689;SDS011;6409;56.294;14.480;2022-10-16T10:53:49;2.47;;;1.60;;
12689;SDS011;6409;56.294;14.480;2022-10-16T10:56:37;3.30;;;1.30;;
12689;SDS011;6409;56.294;14.480;2022-10-16T10:59:16;3.93;;;1.70;;
12689;SDS011;6409;56.294;14.480;2022-10-16T11:01:53;7.40;;;1.80;;
12689;SDS011;6409;56.294;14.480;2022-10-16T11:04:37;5.27;;;1.23;;
12689;SDS011;6409;56.294;14.480;2022-10-16T11:07:14;14.00;;;1.67;;
12689;SDS011;6409;56.294;14.480;2022-10-16T11:09:43;3.23;;;1.30;;
12689;SDS011;6409;56.294;14.480;2022-10-16T11:12:14;6.93;;;1.50;;
12689;SDS011;6409;56.294;14.480;2022-10-16T11:14:48;4.80;;;1.33;;
12689;SDS011;6409;56.294;14.480;2022-10-16T11:17:17;3.97;;;1.20;;
12689;SDS011;6409;56.294;14.480;2022-10-16T11:19:46;1.97;;;1.30;;
12689;SDS011;6409;56.294;14.480;2022-10-16T11:22:17;1.67;;;1.20;;
12689;SDS011;6409;56.294;14.480;2022-10-16T11:24:48;1.57;;;1.07;;
12689;SDS011;6409;56.294;14.480;2022-10-16T11:27:19;3.43;;;1.07;;
12689;SDS011;6409;56.294;14.480;2022-10-16T11:29:55;3.70;;;1.40;;
12689;SDS011;6409;56.294;14.480;2022-10-16T11:32:25;1.43;;;1.10;;
12689;SDS011;6409;56.294;14.480;2022-10-16T11:34:57;2.10;;;1.13;;
12689;SDS011;6409;56.294;14.480;2022-10-16T11:37:27;2.47;;;1.10;;
12689;SDS011;6409;56.294;14.480;2022-10-16T11:40:02;2.50;;;1.30;;
12689;SDS011;6409;56.294;14.480;2022-10-16T11:42:32;1.20;;;1.10;;
12689;SDS011;6409;56.294;14.480;2022-10-16T11:45:07;3.57;;;1.10;;
12689;SDS011;6409;56.294;14.480;2022-10-16T11:47:41;1.30;;;0.90;;
12689;SDS011;6409;56.294;14.480;2022-10-16T11:50:13;1.10;;;1.00;;
12689;SDS011;6409;56.294;14.480;2022-10-16T11:52:44;1.70;;;0.93;;
12689;SDS011;6409;56.294;14.480;2022-10-16T11:55:16;1.43;;;0.90;;
12689;SDS011;6409;56.294;14.480;2022-10-16T11:57:44;3.57;;;1.60;;
12689;SDS011;6409;56.294;14.480;2022-10-16T12:00:19;1.20;;;1.10;;
12689;SDS011;6409;56.294;14.480;2022-10-16T12:02:50;1.90;;;0.97;;
12689;SDS011;6409;56.294;14.480;2022-10-16T12:05:23;3.20;;;0.80;;
12689;SDS011;6409;56.294;14.480;2022-10-16T12:07:54;1.60;;;1.27;;
12689;SDS011;6409;56.294;14.480;2022-10-16T12:10:28;0.90;;;0.90;;
12689;SDS011;6409;56.294;14.480;2022-10-16T12:12:57;1.60;;;0.90;;
12689;SDS011;6409;56.294;14.480;2022-10-16T12:15:26;2.50;;;0.90;;
12689;SDS011;6409;56.294;14.480;2022-10-16T12:17:54;0.83;;;0.83;;
12689;SDS011;6409;56.294;14.480;2022-10-16T12:20:25;1.20;;;0.93;;
12689;SDS011;6409;56.294;14.480;2022-10-16T12:22:56;2.33;;;1.03;;
12689;SDS011;6409;56.294;14.480;2022-10-16T12:25:25;1.50;;;1.13;;
12689;SDS011;6409;56.294;14.480;2022-10-16T12:27:54;2.87;;;1.13;;
12689;SDS011;6409;56.294;14.480;2022-10-16T12:30:33;4.83;;;1.30;;
12689;SDS011;6409;56.294;14.480;2022-10-16T12:33:02;1.00;;;1.00;;
12689;SDS011;6409;56.294;14.480;2022-10-16T12:35:30;11.50;;;1.63;;
12689;SDS011;6409;56.294;14.480;2022-10-16T12:38:12;3.03;;;0.90;;
12689;SDS011;6409;56.294;14.480;2022-10-16T12:40:42;1.03;;;1.00;;
12689;SDS011;6409;56.294;14.480;2022-10-16T12:43:24;3.20;;;1.27;;
12689;SDS011;6409;56.294;14.480;2022-10-16T12:46:01;3.73;;;1.20;;
12689;SDS011;6409;56.294;14.480;2022-10-16T12:48:29;1.10;;;1.00;;
12689;SDS011;6409;56.294;14.480;2022-10-16T12:50:56;2.50;;;1.07;;
12689;SDS011;6409;56.294;14.480;2022-10-16T12:53:24;1.57;;;1.00;;
12689;SDS011;6409;56.294;14.480;2022-10-16T12:55:57;2.10;;;0.87;;
12689;SDS011;6409;56.294;14.480;2022-10-16T12:58:36;5.10;;;1.30;;
12689;SDS011;6409;56.294;14.480;2022-10-16T13:01:22;0.97;;;0.80;;
12689;SDS011;6409;56.294;14.480;2022-10-16T13:03:59;0.90;;;0.90;;
12689;SDS011;6409;56.294;14.480;2022-10-16T13:06:37;1.40;;;1.30;;
12689;SDS011;6409;56.294;14.480;2022-10-16T13:09:12;1.17;;;1.07;;
12689;SDS011;6409;56.294;14.480;2022-10-16T13:11:48;2.67;;;1.23;;
12689;SDS011;6409;56.294;14.480;2022-10-16T13:14:46;1.87;;;1.03;;
12689;SDS011;6409;56.294;14.480;2022-10-16T13:17:27;4.87;;;1.10;;
12689;SDS011;6409;56.294;14.480;2022-10-16T13:20:00;1.87;;;1.00;;
12689;SDS011;6409;56.294;14.480;2022-10-16T13:22:33;4.30;;;1.00;;
12689;SDS011;6409;56.294;14.480;2022-10-16T13:25:18;1.90;;;1.30;;
12689;SDS011;6409;56.294;14.480;2022-10-16T13:27:51;3.33;;;1.10;;
12689;SDS011;6409;56.294;14.480;2022-10-16T13:30:21;4.53;;;1.03;;
12689;SDS011;6409;56.294;14.480;2022-10-16T13:32:52;1.00;;;0.93;;
12689;SDS011;6409;56.294;14.480;2022-10-16T13:35:23;1.33;;;1.00;;
12689;SDS011;6409;56.294;14.480;2022-10-16T13:37:51;1.03;;;1.00;;
12689;SDS011;6409;56.294;14.480;2022-10-16T13:40:28;3.97;;;1.63;;
12689;SDS011;6409;56.294;14.480;2022-10-16T13:42:55;1.27;;;0.90;;
12689;SDS011;6409;56.294;14.480;2022-10-16T13:45:22;1.70;;;1.10;;
12689;SDS011;6409;56.294;14.480;2022-10-16T13:48:00;3.17;;;1.20;;
12689;SDS011;6409;56.294;14.480;2022-10-16T13:50:28;1.67;;;1.20;;
12689;SDS011;6409;56.294;14.480;2022-10-16T13:53:02;2.97;;;1.07;;
12689;SDS011;6409;56.294;14.480;2022-10-16T13:55:30;7.50;;;1.60;;
12689;SDS011;6409;56.294;14.480;2022-10-16T13:58:04;4.57;;;1.10;;
12689;SDS011;6409;56.294;14.480;2022-10-16T14:00:31;3.83;;;1.10;;
12689;SDS011;6409;56.294;14.480;2022-10-16T14:03:00;3.70;;;1.10;;
12689;SDS011;6409;56.294;14.480;2022-10-16T14:05:28;1.77;;;1.30;;
12689;SDS011;6409;56.294;14.480;2022-10-16T14:07:55;3.90;;;0.90;;
12689;SDS011;6409;56.294;14.480;2022-10-16T14:10:23;1.10;;;1.00;;
12689;SDS011;6409;56.294;14.480;2022-10-16T14:12:58;2.90;;;1.57;;
12689;SDS011;6409;56.294;14.480;2022-10-16T14:15:27;0.90;;;0.90;;
12689;SDS011;6409;56.294;14.480;2022-10-16T14:17:54;2.30;;;1.33;;
12689;SDS011;6409;56.294;14.480;2022-10-16T14:20:24;1.27;;;1.17;;
12689;SDS011;6409;56.294;14.480;2022-10-16T14:22:59;0.90;;;0.90;;
12689;SDS011;6409;56.294;14.480;2022-10-16T15:49:18;0.77;;;0.77;;
12689;SDS011;6409;56.294;14.480;2022-10-16T15:51:45;0.80;;;0.70;;
12689;SDS011;6409;56.294;14.480;2022-10-16T15:54:12;1.20;;;0.63;;
12689;SDS011;6409;56.294;14.480;2022-10-16T15:56:39;3.50;;;0.87;;
12689;SDS011;6409;56.294;14.480;2022-10-16T15:59:05;2.00;;;0.90;;
12689;SDS011;6409;56.294;14.480;2022-10-16T16:01:33;0.77;;;0.77;;
12689;SDS011;6409;56.294;14.480;2022-10-16T16:04:00;0.70;;;0.70;;
12689;SDS011;6409;56.294;14.480;2022-10-16T16:06:28;5.07;;;0.83;;
12689;SDS011;6409;56.294;14.480;2022-10-16T16:08:55;0.67;;;0.63;;
12689;SDS011;6409;56.294;14.480;2022-10-16T16:11:22;2.17;;;1.00;;
12689;SDS011;6409;56.294;14.480;2022-10-16T16:13:49;2.17;;;1.00;;
12689;SDS011;6409;56.294;14.480;2022-10-16T16:16:16;12.20;;;1.27;;
12689;SDS011;6409;56.294;14.480;2022-10-16T16:18:44;2.67;;;0.80;;
12689;SDS011;6409;56.294;14.480;2022-10-16T16:21:13;0.90;;;0.90;;
12689;SDS011;6409;56.294;14.480;2022-10-16T16:23:41;3.73;;;2.00;;